createdAt,value
2022-09-23T00:01:11.267Z,9.86
2022-09-23T00:03:41.664Z,9.86
2022-09-23T00:06:11.597Z,9.82
2022-09-23T00:08:38.675Z,9.80
2022-09-23T00:11:16.989Z,9.78
2022-09-23T00:13:45.389Z,9.79
2022-09-23T00:16:15.378Z,9.77
2022-09-23T00:18:43.021Z,9.78
2022-09-23T00:21:12.094Z,9.77
2022-09-23T00:23:40.536Z,9.77
2022-09-23T00:26:09.774Z,9.71
2022-09-23T00:28:36.397Z,9.72
2022-09-23T00:31:15.650Z,9.74
2022-09-23T00:33:42.773Z,9.75
2022-09-23T00:36:16.212Z,9.78
2022-09-23T00:38:44.571Z,9.79
2022-09-23T00:41:12.390Z,9.75
2022-09-23T00:43:53.158Z,9.72
2022-09-23T00:46:32.264Z,9.70
2022-09-23T00:49:05.679Z,9.66
2022-09-23T00:51:40.663Z,9.65
2022-09-23T00:54:08.028Z,9.68
2022-09-23T00:56:35.671Z,9.66
2022-09-23T00:59:02.989Z,9.61
2022-09-23T01:01:29.889Z,9.65
2022-09-23T01:03:57.603Z,9.62
2022-09-23T01:06:24.622Z,9.65
2022-09-23T01:08:52.252Z,9.65
2022-09-23T01:11:57.056Z,9.70
2022-09-23T01:14:44.872Z,9.68
2022-09-23T01:17:29.549Z,9.73
2022-09-23T01:20:08.907Z,9.74
2022-09-23T01:22:42.049Z,9.74
2022-09-23T01:25:17.628Z,9.71
2022-09-23T01:28:23.742Z,9.70
2022-09-23T01:31:18.627Z,9.69
2022-09-23T01:33:54.506Z,9.70
2022-09-23T01:36:50.907Z,9.70
2022-09-23T01:39:28.097Z,9.74
2022-09-23T01:42:09.627Z,9.69
2022-09-23T01:45:07.149Z,9.72
2022-09-23T01:47:40.297Z,9.73
2022-09-23T01:50:33.044Z,9.74
2022-09-23T01:53:06.690Z,9.71
2022-09-23T01:55:47.520Z,9.70
2022-09-23T01:58:23.774Z,9.72
2022-09-23T02:00:57.693Z,9.71
2022-09-23T02:03:33.490Z,9.72
2022-09-23T02:06:06.836Z,9.71
2022-09-23T02:08:52.222Z,9.73
2022-09-23T02:11:19.377Z,9.68
2022-09-23T02:13:54.921Z,9.76
2022-09-23T02:16:29.982Z,9.76
2022-09-23T02:19:18.214Z,9.75
2022-09-23T02:21:55.415Z,9.75
2022-09-23T02:24:31.022Z,9.67
2022-09-23T02:27:06.662Z,9.76
2022-09-23T02:29:54.922Z,9.75
2022-09-23T02:32:42.864Z,9.73
2022-09-23T02:35:48.948Z,9.70
2022-09-23T02:38:27.210Z,9.65
2022-09-23T02:41:15.590Z,9.67
2022-09-23T02:43:57.809Z,9.69
2022-09-23T02:46:24.521Z,9.61
2022-09-23T02:49:12.629Z,9.68
2022-09-23T02:51:40.454Z,9.60
2022-09-23T02:54:14.584Z,9.65
2022-09-23T02:56:41.902Z,9.67
2022-09-23T02:59:09.750Z,9.63
2022-09-23T03:02:05.068Z,9.67
2022-09-23T03:04:50.462Z,9.69
2022-09-23T03:07:22.023Z,9.68
2022-09-23T03:10:03.145Z,9.67
2022-09-23T03:12:52.990Z,9.64
2022-09-23T03:15:35.491Z,9.62
2022-09-23T03:18:16.301Z,9.63
2022-09-23T03:20:51.251Z,9.61
2022-09-23T03:23:25.166Z,9.55
2022-09-23T03:25:55.463Z,9.59
2022-09-23T03:28:25.493Z,9.55
2022-09-23T03:30:54.505Z,9.57
2022-09-23T03:33:28.465Z,9.55
2022-09-23T03:36:19.247Z,9.57
2022-09-23T03:38:51.103Z,9.57
2022-09-23T03:41:31.518Z,9.56
2022-09-23T03:43:59.949Z,9.49
2022-09-23T03:46:28.533Z,9.52
2022-09-23T03:49:02.670Z,9.52
2022-09-23T03:51:29.180Z,9.56
2022-09-23T03:53:55.693Z,9.57
2022-09-23T03:56:22.282Z,9.55
2022-09-23T03:58:48.846Z,9.57
2022-09-23T04:01:15.457Z,9.55
2022-09-23T04:03:42.290Z,9.56
2022-09-23T04:06:09.118Z,9.58
2022-09-23T04:08:35.679Z,9.62
2022-09-23T04:11:02.695Z,9.61
2022-09-23T04:13:29.453Z,9.59
2022-09-23T04:15:56.029Z,9.57
2022-09-23T04:18:22.658Z,9.56
2022-09-23T04:20:49.735Z,9.49
2022-09-23T04:23:16.313Z,9.55
2022-09-23T04:25:47.428Z,9.54
2022-09-23T04:28:14.433Z,9.55
2022-09-23T04:30:44.303Z,9.52
2022-09-23T04:33:11.406Z,9.51
2022-09-23T04:35:40.316Z,9.50
2022-09-23T04:38:07.217Z,9.51
2022-09-23T04:40:35.554Z,9.53
2022-09-23T04:43:02.195Z,9.55
2022-09-23T04:45:29.550Z,9.56
2022-09-23T04:47:58.485Z,9.56
2022-09-23T04:50:26.267Z,9.57
2022-09-23T04:52:54.047Z,9.56
2022-09-23T04:55:21.547Z,9.56
2022-09-23T04:57:48.287Z,9.58
2022-09-23T05:00:15.785Z,9.56
2022-09-23T05:02:44.325Z,9.57
2022-09-23T05:05:11.405Z,9.69
2022-09-23T05:07:37.969Z,9.73
2022-09-23T05:10:05.090Z,9.78
2022-09-23T05:12:31.610Z,9.82
2022-09-23T05:14:58.156Z,9.79
2022-09-23T05:17:24.859Z,9.81
2022-09-23T05:19:51.376Z,9.81
2022-09-23T05:22:17.885Z,9.85
2022-09-23T05:24:44.460Z,9.86
2022-09-23T05:27:10.979Z,9.87
2022-09-23T05:29:38.607Z,9.89
2022-09-23T05:32:05.229Z,9.95
2022-09-23T05:34:32.308Z,9.94
2022-09-23T05:36:58.832Z,9.94
2022-09-23T05:39:25.456Z,9.93
2022-09-23T05:41:53.655Z,9.92
2022-09-23T05:44:20.175Z,9.87
2022-09-23T05:46:46.811Z,9.93
2022-09-23T05:49:13.357Z,9.95
2022-09-23T05:51:39.907Z,9.90
2022-09-23T05:54:06.885Z,9.97
2022-09-23T05:56:34.898Z,9.98
2022-09-23T05:59:02.918Z,9.98
2022-09-23T06:01:35.349Z,9.98
2022-09-23T06:04:05.483Z,10.02
2022-09-23T06:06:37.554Z,10.04
2022-09-23T06:09:05.984Z,10.02
2022-09-23T06:11:34.596Z,10.03
2022-09-23T06:14:02.281Z,10.10
2022-09-23T06:16:31.215Z,10.14
2022-09-23T06:19:05.146Z,10.16
2022-09-23T06:21:33.720Z,10.19
2022-09-23T06:24:00.608Z,10.21
2022-09-23T06:26:28.415Z,10.24
2022-09-23T06:28:54.967Z,10.25
2022-09-23T06:31:21.581Z,10.23
2022-09-23T06:33:50.250Z,10.25
2022-09-23T06:36:32.801Z,10.25
2022-09-23T06:39:03.863Z,10.30
2022-09-23T06:41:30.502Z,10.30
2022-09-23T06:43:57.080Z,10.28
2022-09-23T06:46:23.693Z,10.28
2022-09-23T06:48:51.088Z,10.27
2022-09-23T06:51:21.748Z,10.34
2022-09-23T06:53:49.204Z,10.34
2022-09-23T06:56:17.872Z,10.28
2022-09-23T06:58:44.419Z,10.33
2022-09-23T07:01:15.999Z,10.37
2022-09-23T07:03:43.441Z,10.43
2022-09-23T07:06:09.970Z,10.39
2022-09-23T07:08:36.561Z,10.43
2022-09-23T07:11:07.351Z,10.52
2022-09-23T07:13:34.327Z,10.54
2022-09-23T07:16:02.144Z,10.63
2022-09-23T07:18:36.164Z,10.73
2022-09-23T07:21:29.640Z,10.81
2022-09-23T07:23:58.151Z,10.76
2022-09-23T07:26:25.153Z,10.84
2022-09-23T07:28:56.772Z,10.90
2022-09-23T07:31:36.248Z,10.96
2022-09-23T07:34:05.043Z,11.04
2022-09-23T07:36:32.775Z,11.12
2022-09-23T07:39:03.811Z,11.12
2022-09-23T07:41:31.979Z,11.23
2022-09-23T07:44:00.667Z,11.25
2022-09-23T07:46:29.764Z,11.31
2022-09-23T07:48:56.523Z,11.36
2022-09-23T07:51:25.406Z,11.34
2022-09-23T07:53:54.165Z,11.30
2022-09-23T07:56:24.061Z,11.21
2022-09-23T07:59:00.081Z,11.12
2022-09-23T08:01:29.594Z,11.07
2022-09-23T08:04:02.283Z,11.07
2022-09-23T08:06:29.162Z,11.13
2022-09-23T08:08:58.491Z,11.11
2022-09-23T08:11:26.608Z,11.14
2022-09-23T08:13:54.301Z,11.12
2022-09-23T08:16:21.808Z,11.14
2022-09-23T08:18:48.545Z,11.13
2022-09-23T08:21:22.685Z,11.17
2022-09-23T08:23:49.900Z,11.21
2022-09-23T08:26:21.501Z,11.28
2022-09-23T08:28:49.651Z,11.38
2022-09-23T08:31:16.502Z,11.46
2022-09-23T08:33:43.128Z,11.59
2022-09-23T08:36:09.711Z,11.74
2022-09-23T08:38:36.304Z,11.87
2022-09-23T08:41:28.495Z,11.94
2022-09-23T08:43:59.818Z,11.96
2022-09-23T08:46:32.143Z,12.00
2022-09-23T08:49:00.232Z,11.97
2022-09-23T08:51:46.103Z,11.94
2022-09-23T08:54:13.736Z,12.02
2022-09-23T08:56:44.450Z,12.04
2022-09-23T08:59:29.321Z,12.17
2022-09-23T09:02:13.840Z,12.31
2022-09-23T09:04:44.552Z,12.42
2022-09-23T09:07:35.602Z,12.57
2022-09-23T09:10:24.107Z,12.65
2022-09-23T09:13:00.153Z,12.55
2022-09-23T09:15:28.705Z,12.43
2022-09-23T09:18:07.810Z,12.33
2022-09-23T09:20:37.744Z,12.18
2022-09-23T09:23:19.608Z,12.15
2022-09-23T09:25:50.034Z,12.15
2022-09-23T09:28:39.971Z,12.12
2022-09-23T09:31:36.182Z,12.05
2022-09-23T09:34:03.143Z,12.04
2022-09-23T09:36:32.517Z,12.00
2022-09-23T09:38:59.546Z,12.02
2022-09-23T09:41:31.387Z,12.02
2022-09-23T09:44:01.006Z,12.11
2022-09-23T09:46:34.010Z,12.15
2022-09-23T09:49:23.140Z,12.21
2022-09-23T09:52:22.418Z,12.18
2022-09-23T09:54:51.092Z,12.23
2022-09-23T09:57:33.642Z,12.24
2022-09-23T10:00:26.742Z,12.26
2022-09-23T10:02:55.731Z,12.30
2022-09-23T10:05:33.410Z,12.32
2022-09-23T10:08:29.016Z,12.43
2022-09-23T10:11:06.988Z,12.50
2022-09-23T10:13:33.842Z,12.54
2022-09-23T10:16:03.999Z,12.51
2022-09-23T10:18:37.497Z,12.44
2022-09-23T10:21:14.379Z,12.36
2022-09-23T10:23:52.496Z,12.28
2022-09-23T10:26:32.432Z,12.22
2022-09-23T10:29:02.257Z,12.14
2022-09-23T10:31:32.251Z,12.10
2022-09-23T10:34:00.402Z,12.05
2022-09-23T10:36:28.938Z,11.89
2022-09-23T10:39:18.128Z,11.83
2022-09-23T10:42:27.832Z,11.72
2022-09-23T10:45:38.603Z,11.58
2022-09-23T10:48:46.274Z,11.43
2022-09-23T10:51:54.709Z,11.27
2022-09-23T10:54:51.922Z,11.19
2022-09-23T10:57:43.691Z,11.09
2022-09-23T11:00:27.191Z,11.07
2022-09-23T11:03:18.482Z,11.01
2022-09-23T11:06:03.780Z,10.95
2022-09-23T11:08:32.994Z,10.90
2022-09-23T11:11:11.724Z,10.88
2022-09-23T11:14:13.137Z,10.92
2022-09-23T11:17:18.226Z,10.92
2022-09-23T11:20:02.613Z,10.93
2022-09-23T11:22:34.829Z,10.93
2022-09-23T11:25:28.085Z,10.93
2022-09-23T11:27:57.576Z,10.91
2022-09-23T11:30:36.584Z,10.86
2022-09-23T11:33:04.468Z,10.87
2022-09-23T11:35:41.653Z,10.88
2022-09-23T11:38:13.197Z,10.91
2022-09-23T11:40:45.545Z,10.86
2022-09-23T11:43:23.965Z,10.89
2022-09-23T11:45:58.634Z,10.93
2022-09-23T11:48:44.059Z,10.97
2022-09-23T11:51:27.929Z,11.00
2022-09-23T11:53:57.657Z,11.09
2022-09-23T11:56:49.209Z,11.18
2022-09-23T11:59:35.268Z,11.25
2022-09-23T12:02:30.572Z,11.35
2022-09-23T12:05:02.912Z,11.42
2022-09-23T12:07:44.193Z,11.39
2022-09-23T12:10:12.270Z,11.33
2022-09-23T12:12:47.741Z,11.37
2022-09-23T12:15:16.989Z,11.37
2022-09-23T12:18:22.940Z,11.33
2022-09-23T12:20:52.671Z,11.20
2022-09-23T12:23:37.893Z,11.15
2022-09-23T12:26:08.947Z,10.99
2022-09-23T12:28:45.104Z,10.94
2022-09-23T12:31:18.671Z,10.90
2022-09-23T12:33:53.731Z,10.84
2022-09-23T12:36:34.704Z,10.83
2022-09-23T12:39:03.953Z,10.79
2022-09-23T12:41:37.080Z,10.78
2022-09-23T12:44:15.443Z,10.74
2022-09-23T12:46:46.216Z,10.57
2022-09-23T12:49:37.227Z,10.54
2022-09-23T12:52:12.801Z,10.48
2022-09-23T12:54:44.608Z,10.51
2022-09-23T12:57:34.981Z,10.55
2022-09-23T13:00:12.538Z,10.59
2022-09-23T13:02:41.790Z,10.55
2022-09-23T13:05:27.156Z,10.54
2022-09-23T13:08:05.370Z,10.50
2022-09-23T13:10:52.491Z,10.47
2022-09-23T13:13:37.283Z,10.45
2022-09-23T13:16:20.265Z,10.35
2022-09-23T13:18:56.940Z,10.42
2022-09-23T13:21:42.160Z,10.37
2022-09-23T13:24:30.471Z,10.34
2022-09-23T13:27:15.445Z,10.36
2022-09-23T13:29:48.278Z,10.35
2022-09-23T13:32:17.816Z,10.30
2022-09-23T13:34:55.057Z,10.26
2022-09-23T13:37:25.315Z,10.20
2022-09-23T13:39:51.851Z,10.22
2022-09-23T13:42:30.296Z,10.21
2022-09-23T13:45:00.338Z,10.16
2022-09-23T13:47:30.125Z,10.12
2022-09-23T13:49:57.448Z,10.14
2022-09-23T13:52:31.724Z,10.15
2022-09-23T13:54:58.381Z,10.14
2022-09-23T13:57:29.378Z,10.16
2022-09-23T14:00:22.987Z,10.16
2022-09-23T14:02:50.117Z,10.14
2022-09-23T14:05:25.547Z,10.15
2022-09-23T14:07:53.726Z,10.14
2022-09-23T14:10:23.635Z,10.18
2022-09-23T14:12:52.709Z,10.21
2022-09-23T14:15:21.257Z,10.24
2022-09-23T14:17:49.910Z,10.23
2022-09-23T14:20:17.980Z,10.22
2022-09-23T14:22:45.075Z,10.21
2022-09-23T14:25:18.850Z,10.21
2022-09-23T14:27:47.184Z,10.19
2022-09-23T14:30:20.631Z,10.20
2022-09-23T14:32:50.036Z,10.18
2022-09-23T14:35:23.344Z,10.19
2022-09-23T14:38:12.430Z,10.12
2022-09-23T14:40:51.796Z,10.15
2022-09-23T14:43:23.165Z,10.17
2022-09-23T14:45:57.512Z,10.14
2022-09-23T14:48:31.588Z,10.12
2022-09-23T14:51:00.408Z,10.10
2022-09-23T14:53:32.849Z,10.06
2022-09-23T14:56:08.543Z,10.04
2022-09-23T14:58:56.226Z,10.06
2022-09-23T15:01:32.355Z,10.03
2022-09-23T15:04:09.527Z,10.01
2022-09-23T15:07:03.192Z,10.02
2022-09-23T15:09:33.895Z,10.00
2022-09-23T15:12:04.590Z,9.99
2022-09-23T15:14:39.204Z,9.98
2022-09-23T15:17:32.745Z,10.01
2022-09-23T15:20:06.620Z,10.02
2022-09-23T15:22:43.155Z,9.97
2022-09-23T15:25:21.438Z,10.02
2022-09-23T15:28:10.276Z,10.01
2022-09-23T15:30:38.195Z,10.00
2022-09-23T15:33:05.814Z,10.00
2022-09-23T15:35:32.864Z,10.00
2022-09-23T15:38:02.743Z,10.01
2022-09-23T15:40:32.765Z,10.02
2022-09-23T15:43:02.404Z,9.98
2022-09-23T15:45:34.984Z,10.06
2022-09-23T15:48:10.325Z,10.09
2022-09-23T15:50:37.353Z,10.12
2022-09-23T15:53:06.024Z,10.13
2022-09-23T15:55:33.725Z,10.15
2022-09-23T15:58:00.546Z,10.17
2022-09-23T16:00:27.300Z,10.16
2022-09-23T16:02:54.225Z,10.17
2022-09-23T16:05:36.169Z,10.15
2022-09-23T16:08:09.177Z,10.17
2022-09-23T16:10:37.263Z,10.18
2022-09-23T16:13:07.589Z,10.19
2022-09-23T16:15:34.347Z,10.15
2022-09-23T16:18:01.753Z,10.14
2022-09-23T16:20:30.063Z,10.13
2022-09-23T16:23:02.194Z,10.09
2022-09-23T16:25:31.656Z,10.07
2022-09-23T16:27:58.702Z,10.05
2022-09-23T16:30:29.389Z,10.04
2022-09-23T16:32:56.481Z,10.06
2022-09-23T16:35:25.668Z,10.05
2022-09-23T16:37:52.900Z,10.03
2022-09-23T16:40:21.487Z,9.97
2022-09-23T16:42:49.536Z,9.99
2022-09-23T16:45:17.955Z,9.97
2022-09-23T16:47:46.622Z,9.94
2022-09-23T16:50:14.779Z,9.91
2022-09-23T16:52:42.011Z,9.86
2022-09-23T16:55:10.912Z,9.90
2022-09-23T16:57:39.181Z,9.90
2022-09-23T17:00:28.839Z,9.87
2022-09-23T17:03:14.506Z,9.82
2022-09-23T17:05:41.186Z,9.82
2022-09-23T17:08:07.728Z,9.76
2022-09-23T17:10:34.357Z,9.75
2022-09-23T17:13:00.994Z,9.75
2022-09-23T17:15:27.610Z,9.75
2022-09-23T17:17:54.220Z,9.72
2022-09-23T17:20:20.899Z,9.65
2022-09-23T17:22:47.508Z,9.68
2022-09-23T17:25:14.239Z,9.65
2022-09-23T17:27:40.928Z,9.63
2022-09-23T17:30:08.223Z,9.64
2022-09-23T17:32:34.912Z,9.60
2022-09-23T17:35:04.723Z,9.63
2022-09-23T17:37:32.392Z,9.59
2022-09-23T17:39:59.694Z,9.61
2022-09-23T17:42:26.368Z,9.61
2022-09-23T17:44:56.195Z,9.68
2022-09-23T17:47:23.462Z,9.63
2022-09-23T17:49:50.071Z,9.58
2022-09-23T17:52:18.024Z,9.61
2022-09-23T17:54:45.459Z,9.61
2022-09-23T17:57:12.644Z,9.58
2022-09-23T17:59:39.262Z,9.63
2022-09-23T18:02:06.491Z,9.63
2022-09-23T18:04:33.194Z,9.64
2022-09-23T18:06:59.819Z,9.63
2022-09-23T18:09:26.771Z,9.62
2022-09-23T18:11:53.423Z,9.60
2022-09-23T18:14:22.142Z,9.57
2022-09-23T18:16:51.838Z,9.57
2022-09-23T18:19:20.998Z,9.57
2022-09-23T18:21:50.715Z,9.57
2022-09-23T18:24:31.779Z,9.55
2022-09-23T18:26:59.974Z,9.56
2022-09-23T18:29:27.082Z,9.55
2022-09-23T18:31:53.876Z,9.52
2022-09-23T18:34:20.711Z,9.53
2022-09-23T18:36:47.652Z,9.53
2022-09-23T18:39:14.302Z,9.55
2022-09-23T18:41:41.444Z,9.55
2022-09-23T18:44:08.463Z,9.56
2022-09-23T18:46:35.566Z,9.56
2022-09-23T18:49:20.946Z,9.57
2022-09-23T18:51:58.254Z,9.54
2022-09-23T18:54:27.919Z,9.54
2022-09-23T18:56:55.351Z,9.55
2022-09-23T18:59:25.947Z,9.49
2022-09-23T19:01:56.581Z,9.54
2022-09-23T19:04:25.400Z,9.54
2022-09-23T19:06:53.697Z,9.57
2022-09-23T19:09:20.709Z,9.55
2022-09-23T19:11:51.699Z,9.57
2022-09-23T19:14:18.368Z,9.61
2022-09-23T19:16:45.445Z,9.60
2022-09-23T19:19:12.104Z,9.56
2022-09-23T19:21:38.739Z,9.61
2022-09-23T19:24:07.605Z,9.58
2022-09-23T19:26:39.882Z,9.55
2022-09-23T19:29:08.750Z,9.56
2022-09-23T19:31:40.779Z,9.55
2022-09-23T19:34:16.438Z,9.54
2022-09-23T19:36:45.082Z,9.56
2022-09-23T19:39:23.446Z,9.55
2022-09-23T19:41:52.315Z,9.57
2022-09-23T19:44:20.135Z,9.58
2022-09-23T19:46:53.392Z,9.57
2022-09-23T19:49:23.955Z,9.55
2022-09-23T19:51:50.636Z,9.50
2022-09-23T19:54:20.651Z,9.51
2022-09-23T19:56:50.770Z,9.52
2022-09-23T19:59:19.341Z,9.51
2022-09-23T20:04:31.279Z,9.42
2022-09-23T20:06:57.878Z,9.41
2022-09-23T20:09:24.465Z,9.42
2022-09-23T20:11:51.417Z,9.39
2022-09-23T20:14:19.860Z,9.37
2022-09-23T20:16:46.448Z,9.32
2022-09-23T20:19:13.590Z,9.32
2022-09-23T20:21:40.144Z,9.36
2022-09-23T20:24:07.639Z,9.33
2022-09-23T20:26:52.935Z,9.37
2022-09-23T20:29:19.462Z,9.33
2022-09-23T20:31:46.078Z,9.38
2022-09-23T20:34:12.737Z,9.32
2022-09-23T20:36:41.331Z,9.35
2022-09-23T20:39:09.946Z,9.31
2022-09-23T20:41:38.395Z,9.32
2022-09-23T20:44:12.573Z,9.32
2022-09-23T20:46:45.309Z,9.31
2022-09-23T20:49:14.218Z,9.34
2022-09-23T20:51:40.776Z,9.26
2022-09-23T20:54:07.522Z,9.20
2022-09-23T20:56:34.071Z,9.28
2022-09-23T20:59:01.269Z,9.31
2022-09-23T21:01:28.185Z,9.22
2022-09-23T21:03:55.871Z,9.24
2022-09-23T21:06:26.114Z,9.22
2022-09-23T21:08:54.607Z,9.22
2022-09-23T21:11:21.984Z,9.23
2022-09-23T21:13:50.935Z,9.24
2022-09-23T21:16:21.463Z,9.23
2022-09-23T21:18:50.322Z,9.19
2022-09-23T21:21:19.368Z,9.14
2022-09-23T21:23:46.840Z,9.18
2022-09-23T21:26:14.445Z,9.16
2022-09-23T21:28:45.885Z,9.16
2022-09-23T21:31:23.680Z,9.10
2022-09-23T21:33:54.196Z,9.16
2022-09-23T21:36:21.651Z,9.10
2022-09-23T21:38:48.202Z,9.13
2022-09-23T21:41:15.187Z,9.06
2022-09-23T21:43:41.821Z,9.10
2022-09-23T21:46:11.073Z,9.12
2022-09-23T21:48:43.268Z,9.02
2022-09-23T21:51:25.419Z,9.05
2022-09-23T21:53:54.524Z,9.01
2022-09-23T21:56:26.126Z,9.08
2022-09-23T21:58:57.023Z,9.11
2022-09-23T22:01:29.339Z,9.10
2022-09-23T22:04:05.290Z,9.06
2022-09-23T22:06:32.411Z,9.13
2022-09-23T22:09:08.382Z,9.05
2022-09-23T22:11:54.170Z,9.10
2022-09-23T22:14:25.933Z,9.10
2022-09-23T22:16:57.876Z,9.07
2022-09-23T22:19:26.754Z,9.04
2022-09-23T22:21:54.146Z,9.05
2022-09-23T22:24:20.793Z,8.97
2022-09-23T22:26:47.308Z,8.97
2022-09-23T22:29:34.154Z,8.97
2022-09-23T22:32:20.927Z,8.95
2022-09-23T22:34:50.527Z,8.86
2022-09-23T22:37:25.707Z,8.90
2022-09-23T22:39:52.929Z,8.87
2022-09-23T22:42:22.375Z,8.83
2022-09-23T22:44:49.473Z,8.85
2022-09-23T22:47:17.965Z,8.83
2022-09-23T22:49:45.662Z,8.86
2022-09-23T22:52:12.414Z,8.79
2022-09-23T22:54:39.035Z,8.76
2022-09-23T22:57:09.024Z,8.80
2022-09-23T22:59:37.272Z,8.81
2022-09-23T23:02:05.138Z,8.75
2022-09-23T23:04:31.967Z,8.78
2022-09-23T23:07:03.084Z,8.76
2022-09-23T23:09:29.670Z,8.74
2022-09-23T23:11:56.190Z,8.76
2022-09-23T23:14:22.727Z,8.75
2022-09-23T23:16:49.644Z,8.74
2022-09-23T23:19:17.292Z,8.67
2022-09-23T23:21:45.142Z,8.69
2022-09-23T23:24:18.980Z,8.66
2022-09-23T23:26:46.010Z,8.58
2022-09-23T23:29:15.792Z,8.57
2022-09-23T23:31:42.791Z,8.58
2022-09-23T23:34:14.860Z,8.56
2022-09-23T23:36:41.825Z,8.52
2022-09-23T23:39:08.638Z,8.53
2022-09-23T23:41:35.610Z,8.51
2022-09-23T23:44:02.757Z,8.49
2022-09-23T23:46:31.152Z,8.40
2022-09-23T23:48:59.166Z,8.41
2022-09-23T23:51:27.150Z,8.47
2022-09-23T23:53:56.021Z,8.47
2022-09-23T23:56:24.769Z,8.45
2022-09-23T23:59:00.007Z,8.40
